Time;durP1;ratioP1;P1;durP2;ratioP2;P2;SDS_P1;SDS_P2;PMS_P1;PMS_P2;Temp;Humidity;BMP_temperature;BMP_pressure;BME280_temperature;BME280_humidity;BME280_pressure;Samples;Min_cycle;Max_cycle;Signal;HPM_P1;HPM_P2
2022/06/20 00:01:08;;;;;;;8.40;2.38;;;;;;;;;;5098383;28;20105;-76
2022/06/20 00:03:41;;;;;;;17.55;2.30;;;;;;;;;;5094666;28;20058;-81
2022/06/20 00:06:13;;;;;;;7.18;1.98;;;;;;;;;;5094437;28;20089;-80
2022/06/20 00:08:40;;;;;;;8.60;1.85;;;;;;;;;;5098827;28;20040;-76
2022/06/20 00:11:06;;;;;;;11.85;1.80;;;;;;;;;;5096553;28;20052;-81
2022/06/20 00:13:33;;;;;;;12.02;2.17;;;;;;;;;;5099112;28;20112;-76
2022/06/20 00:16:00;;;;;;;10.13;2.40;;;;;;;;;;5097974;28;20127;-80
2022/06/20 00:18:30;;;;;;;6.95;1.70;;;;;;;;;;5097437;28;20036;-79
2022/06/20 00:20:56;;;;;;;7.88;1.90;;;;;;;;;;5099560;28;20269;-76
2022/06/20 00:23:23;;;;;;;15.45;2.30;;;;;;;;;;5092109;28;20083;-81
2022/06/20 00:25:49;;;;;;;5.18;1.60;;;;;;;;;;5097009;28;20390;-81
2022/06/20 00:28:16;;;;;;;7.50;1.63;;;;;;;;;;5099338;28;20024;-82
2022/06/20 00:30:42;;;;;;;6.95;1.92;;;;;;;;;;5098741;28;20081;-77
2022/06/20 00:33:10;;;;;;;8.55;1.95;;;;;;;;;;5094768;28;20040;-77
2022/06/20 00:35:37;;;;;;;8.10;2.20;;;;;;;;;;5090868;28;20036;-76
2022/06/20 00:38:04;;;;;;;10.68;1.63;;;;;;;;;;5099026;28;20499;-77
2022/06/20 00:40:35;;;;;;;6.38;1.73;;;14.10;99.90;;;;;;5097104;28;20144;-80
2022/06/20 00:43:02;;;;;;;5.65;1.90;;;;;;;;;;5097636;28;20171;-77
2022/06/20 00:45:31;;;;;;;6.75;1.42;;;;;;;;;;5095277;28;20482;-76
2022/06/20 00:48:00;;;;;;;5.50;1.58;;;;;;;;;;5098639;28;20040;-77
2022/06/20 00:50:29;;;;;;;8.77;1.77;;;;;;;;;;5098670;28;20122;-79
2022/06/20 00:53:14;;;;;;;8.75;1.83;;;;;;;;;;5080129;28;20123;-79
2022/06/20 00:55:46;;;;;;;9.23;1.77;;;;;;;;;;5093794;28;20138;-80
2022/06/20 00:58:30;;;;;;;5.57;1.27;;;;;;;;;;5097862;28;20541;-79
2022/06/20 01:00:56;;;;;;;5.45;1.77;;;;;;;;;;5096010;28;20047;-79
2022/06/20 01:03:24;;;;;;;6.85;1.83;;;;;;;;;;5101716;28;20055;-80
2022/06/20 01:06:09;;;;;;;6.82;1.92;;;;;;;;;;5099261;28;20036;-79
2022/06/20 01:08:58;;;;;;;13.93;2.28;;;;;;;;;;5096253;28;20343;-79
2022/06/20 01:11:26;;;;;;;10.63;1.77;;;;;;;;;;5099431;28;20403;-81
2022/06/20 01:13:53;;;;;;;6.43;1.70;;;;;;;;;;5092923;28;20067;-80
2022/06/20 01:16:19;;;;;;;6.45;1.65;;;;;;;;;;5097593;28;20055;-80
2022/06/20 01:18:46;;;;;;;8.38;1.70;;;;;;;;;;5097655;28;20088;-78
2022/06/20 01:21:18;;;;;;;9.38;1.67;;;;;;;;;;5097981;28;20039;-80
2022/06/20 01:23:47;;;;;;;8.10;1.88;;;;;;;;;;5095577;28;20633;-76
2022/06/20 01:26:19;;;;;;;10.45;1.75;;;;;;;;;;5079842;28;20036;-78
2022/06/20 01:28:47;;;;;;;8.10;2.08;;;;;;;;;;5098835;28;20406;-77
2022/06/20 01:31:14;;;;;;;8.27;2.13;;;;;;;;;;5097392;28;20035;-81
2022/06/20 01:33:40;;;;;;;20.02;3.38;;;;;;;;;;5095815;28;20415;-80
2022/06/20 01:38:53;;;;;;;8.25;2.20;;;;;;;;;;5106232;28;20386;-76
2022/06/20 01:44:05;;;;;;;11.27;2.15;;;;;;;;;;5097386;28;20042;-76
2022/06/20 01:46:32;;;;;;;10.40;1.92;;;;;;;;;;5098023;28;20047;-73
2022/06/20 01:49:00;;;;;;;15.55;2.22;;;;;;;;;;5097299;28;20042;-80
2022/06/20 01:51:59;;;;;;;11.07;2.20;;;;;;;;;;5097793;28;20082;-78
2022/06/20 01:54:28;;;;;;;13.70;2.15;;;;;;;;;;5060325;28;20091;-76
2022/06/20 01:56:54;;;;;;;7.22;1.83;;;;;;;;;;5098594;28;20039;-77
2022/06/20 01:59:22;;;;;;;9.90;1.70;;;;;;;;;;5098224;28;20496;-76
2022/06/20 02:01:50;;;;;;;9.18;1.77;;;;;;;;;;5098024;28;20032;-76
2022/06/20 02:04:18;;;;;;;5.97;1.83;;;;;;;;;;5100894;28;20088;-76
2022/06/20 02:06:47;;;;;;;7.88;1.92;;;;;;;;;;5100038;28;20093;-80
2022/06/20 02:09:13;;;;;;;11.88;2.22;;;;;;;;;;5101399;28;20123;-78
2022/06/20 02:11:41;;;;;;;7.32;1.88;;;;;;;;;;5100332;28;20897;-79
2022/06/20 02:14:19;;;;;;;4.55;1.80;;;;;;;;;;5098283;28;20066;-76
2022/06/20 02:16:47;;;;;;;7.80;2.30;;;;;;;;;;5100724;28;20090;-80
2022/06/20 02:19:15;;;;;;;10.90;2.10;;;;;;;;;;5099752;28;20035;-79
2022/06/20 02:21:42;;;;;;;7.07;2.20;;;;;;;;;;5100406;27;21202;-81
2022/06/20 02:24:12;;;;;;;4.00;1.63;;;;;;;;;;5100012;27;20040;-77
2022/06/20 02:26:39;;;;;;;7.07;1.83;;;;;;;;;;5101689;28;20100;-77
2022/06/20 02:29:22;;;;;;;10.13;2.75;;;;;;;;;;5100075;28;20039;-78
2022/06/20 02:31:49;;;;;;;6.72;2.40;;;;;;;;;;5102916;28;20063;-79
2022/06/20 02:34:15;;;;;;;5.07;1.58;;;;;;;;;;5100719;28;20617;-79
2022/06/20 02:36:41;;;;;;;8.10;1.90;;;;;;;;;;5102399;28;20050;-77
2022/06/20 02:39:07;;;;;;;20.92;3.78;;;;;;;;;;5100554;28;20036;-80
2022/06/20 02:41:35;;;;;;;7.13;2.33;;;;;;;;;;5098017;27;20042;-78
2022/06/20 02:44:05;;;;;;;6.45;1.90;;;;;;;;;;5101448;28;20453;-80
2022/06/20 02:46:32;;;;;;;5.80;1.70;;;;;;;;;;5101815;28;20085;-78
2022/06/20 02:48:59;;;;;;;7.68;2.22;;;;;;;;;;5095104;28;20907;-76
2022/06/20 02:51:28;;;;;;;8.25;2.25;;;;;;;;;;5101880;28;20040;-78
2022/06/20 02:53:58;;;;;;;6.60;1.70;;;;;;;;;;5100091;28;20036;-77
2022/06/20 02:56:26;;;;;;;10.55;2.50;;;;;;;;;;5098189;28;20031;-76
2022/06/20 02:58:54;;;;;;;7.32;2.08;;;;;;;;;;5095023;28;20349;-78
2022/06/20 03:01:20;;;;;;;5.88;2.17;;;;;;;;;;5101878;28;20067;-78
2022/06/20 03:03:48;;;;;;;6.55;2.00;;;;;;;;;;5097344;28;20075;-77
2022/06/20 03:06:24;;;;;;;6.82;1.88;;;;;;;;;;5096948;28;20534;-78
2022/06/20 03:08:51;;;;;;;7.50;2.05;;;;;;;;;;5093258;28;20058;-77
2022/06/20 03:11:17;;;;;;;8.93;2.42;;;;;;;;;;5098460;28;20108;-78
2022/06/20 03:13:43;;;;;;;9.40;2.20;;;;;;;;;;5089713;28;20047;-76
2022/06/20 03:16:10;;;;;;;4.40;1.90;;;;;;;;;;5094826;28;20036;-79
2022/06/20 03:18:42;;;;;;;7.18;2.30;;;;;;;;;;5100654;28;20097;-78
2022/06/20 03:21:08;;;;;;;7.57;2.15;;;;;;;;;;5093196;28;20043;-75
2022/06/20 03:23:34;;;;;;;5.25;2.00;;;;;;;;;;5105422;28;20089;-75
2022/06/20 03:26:02;;;;;;;7.65;3.15;;;;;;;;;;5092611;28;20135;-75
2022/06/20 03:28:29;;;;;;;5.72;2.05;;;;;;;;;;5094652;28;20044;-75
2022/06/20 03:30:58;;;;;;;8.07;2.42;;;;;;;;;;5101783;28;20043;-77
2022/06/20 03:33:24;;;;;;;8.77;2.55;;;;;;;;;;5107215;28;20039;-80
2022/06/20 03:36:09;;;;;;;7.07;2.45;;;;;;;;;;5106039;28;20812;-78
2022/06/20 03:38:36;;;;;;;8.43;2.25;;;;;;;;;;5103837;28;21048;-79
2022/06/20 03:41:04;;;;;;;9.23;2.85;;;;;;;;;;5096340;28;20121;-76
2022/06/20 03:43:30;;;;;;;6.78;2.38;;;;;;;;;;5102088;28;20579;-77
2022/06/20 03:46:01;;;;;;;9.52;2.47;;;;;;;;;;5094774;28;20047;-77
2022/06/20 03:48:30;;;;;;;6.72;2.13;;;;;;;;;;5101878;28;20039;-76
2022/06/20 03:50:59;;;;;;;6.72;2.80;;;;;;;;;;5097696;28;20383;-79
2022/06/20 03:53:36;;;;;;;14.32;3.20;;;;;;;;;;5099220;28;20032;-79
2022/06/20 03:56:10;;;;;;;10.65;2.60;;;;;;;;;;5096528;28;20079;-79
2022/06/20 03:58:47;;;;;;;11.20;3.00;;;;;;;;;;5102844;28;20056;-80
2022/06/20 04:01:17;;;;;;;9.77;3.05;;;;;;;;;;5089578;28;20040;-77
2022/06/20 04:04:00;;;;;;;13.35;3.00;;;;;;;;;;5101487;28;20078;-76
2022/06/20 04:06:31;;;;;;;8.43;3.15;;;;;;;;;;5091007;28;20429;-81
2022/06/20 04:11:52;;;;;;;12.77;3.30;;;;;;;;;;5097109;28;20153;-81
2022/06/20 04:14:24;;;;;;;10.88;3.42;;;;;;;;;;5110517;28;20119;-78
2022/06/20 04:16:55;;;;;;;11.23;3.08;;;;;;;;;;5104862;28;20040;-79
2022/06/20 04:19:28;;;;;;;12.27;3.53;;;;;;;;;;5108565;28;20073;-76
2022/06/20 04:22:00;;;;;;;7.22;2.80;;;;;;;;;;5096268;28;20495;-75
2022/06/20 04:24:29;;;;;;;6.30;3.22;;;;;;;;;;5088024;28;20769;-80
2022/06/20 04:27:13;;;;;;;9.65;3.63;;;;;;;;;;5088278;28;20512;-76
2022/06/20 04:29:46;;;;;;;10.32;3.20;;;;;;;;;;5069138;28;20403;-78
2022/06/20 04:32:18;;;;;;;9.83;2.90;;;;;;;;;;5095767;28;20051;-75
2022/06/20 04:34:47;;;;;;;8.48;2.90;;;;;;;;;;5099095;28;20048;-76
2022/06/20 04:37:13;;;;;;;14.55;3.72;;;;;;;;;;5095970;28;20052;-76
2022/06/20 04:39:50;;;;;;;11.32;3.55;;;;;;;;;;5096142;28;20044;-74
2022/06/20 04:42:18;;;;;;;9.25;3.38;;;;;;;;;;5082146;28;20067;-76
2022/06/20 04:44:55;;;;;;;11.05;4.22;;;;;;;;;;5101163;28;20046;-76
2022/06/20 04:47:42;;;;;;;12.18;3.92;;;;;;;;;;5103414;28;20084;-77
2022/06/20 04:50:14;;;;;;;12.57;3.47;;;;;;;;;;5092225;28;20416;-77
2022/06/20 04:52:40;;;;;;;17.40;3.78;;;;;;;;;;5084326;28;20571;-76
2022/06/20 04:55:07;;;;;;;11.52;4.00;;;;;;;;;;5091893;28;20036;-78
2022/06/20 04:57:33;;;;;;;11.90;3.88;;;;;;;;;;5098326;28;20075;-77
2022/06/20 05:00:02;;;;;;;12.70;3.60;;;;;;;;;;5091493;28;20166;-75
2022/06/20 05:02:28;;;;;;;9.27;3.97;;;;;;;;;;5091077;28;20043;-76
2022/06/20 05:04:55;;;;;;;15.90;4.70;;;;;;;;;;5099029;28;20035;-80
2022/06/20 05:07:27;;;;;;;9.63;4.50;;;;;;;;;;5101198;28;20063;-78
2022/06/20 05:10:05;;;;;;;16.42;4.20;;;;;;;;;;5093476;28;20043;-78
2022/06/20 05:12:41;;;;;;;10.85;4.50;;;;;;;;;;5090496;28;20050;-75
2022/06/20 05:15:20;;;;;;;12.63;3.58;;;;;;;;;;5094562;28;20044;-80
2022/06/20 05:17:48;;;;;;;10.73;4.20;;;;;;;;;;5087232;28;20142;-76
2022/06/20 05:20:18;;;;;;;12.68;3.92;;;;;;;;;;5101182;28;21216;-75
2022/06/20 05:22:49;;;;;;;11.75;4.40;;;;;;;;;;5096810;28;20508;-76
2022/06/20 05:25:21;;;;;;;15.88;4.50;;;;;;;;;;5097750;28;20040;-75
2022/06/20 05:27:49;;;;;;;11.82;4.25;;;;;;;;;;5095678;28;20063;-75
2022/06/20 05:30:20;;;;;;;14.07;4.50;;;;;;;;;;5101168;28;20050;-77
2022/06/20 05:32:49;;;;;;;17.10;4.40;;;;;;;;;;5102917;28;20567;-76
2022/06/20 05:35:30;;;;;;;14.95;4.55;;;;;;;;;;5094600;28;20040;-75
2022/06/20 05:38:00;;;;;;;14.05;4.35;;;;;;;;;;5095891;28;20044;-75
2022/06/20 05:40:31;;;;;;;14.80;4.78;;;;;;;;;;5100392;28;20047;-78
2022/06/20 05:42:57;;;;;;;15.25;4.63;;;;;;;;;;5080354;28;20138;-78
2022/06/20 05:45:25;;;;;;;13.68;4.38;;;;;;;;;;5103290;28;20036;-78
2022/06/20 05:48:02;;;;;;;10.90;4.80;;;;;;;;;;5108381;28;20050;-80
2022/06/20 05:50:39;;;;;;;10.48;4.45;;;;;;;;;;5109444;27;20039;-77
2022/06/20 05:53:10;;;;;;;15.88;4.82;;;;;;;;;;5100502;28;20047;-80
2022/06/20 05:55:42;;;;;;;15.32;5.15;;;;;;;;;;5101997;28;20761;-78
2022/06/20 05:58:11;;;;;;;16.13;4.72;;;;;;;;;;5096374;28;20056;-78
2022/06/20 06:00:37;;;;;;;16.33;4.60;;;;;;;;;;5094086;28;20442;-78
2022/06/20 06:03:06;;;;;;;20.83;4.88;;;;;;;;;;5105751;28;20032;-82
2022/06/20 06:05:43;;;;;;;18.88;4.50;;;;;;;;;;5103264;28;20036;-81
2022/06/20 06:08:27;;;;;;;11.57;3.70;;;;;;;;;;5099777;28;20063;-81
2022/06/20 06:11:00;;;;;;;15.50;4.25;;;;;;;;;;5100592;28;20027;-80
2022/06/20 06:13:40;;;;;;;18.58;4.47;;;;;;;;;;5099926;28;20051;-76
2022/06/20 06:19:04;;;;;;;20.88;5.13;;;;;;;;;;5103483;28;20059;-77
2022/06/20 06:21:30;;;;;;;19.17;3.67;;;;;;;;;;5099789;28;20208;-79
2022/06/20 06:23:56;;;;;;;14.02;3.38;;;;;;;;;;5100368;28;20058;-76
2022/06/20 06:26:22;;;;;;;17.83;3.22;;;;;;;;;;5102782;28;20079;-80
2022/06/20 06:28:49;;;;;;;13.90;3.50;;;;;;;;;;5101890;28;20042;-80
2022/06/20 06:31:22;;;;;;;13.05;4.10;;;;;;;;;;5105006;28;20039;-76
2022/06/20 06:33:52;;;;;;;14.80;3.83;;;;;;;;;;5102899;28;20048;-77
2022/06/20 06:36:38;;;;;;;15.88;4.05;;;;;;;;;;5102663;28;20039;-79
2022/06/20 06:39:09;;;;;;;16.30;3.20;;;;;;;;;;5099391;28;20059;-81
2022/06/20 06:41:38;;;;;;;12.65;3.13;;;;;;;;;;5099770;28;20032;-75
2022/06/20 06:44:06;;;;;;;17.63;3.83;;;;;;;;;;5100670;28;20044;-76
2022/06/20 06:46:38;;;;;;;17.33;3.83;;;;;;;;;;5100197;28;20047;-75
2022/06/20 06:49:14;;;;;;;11.85;3.40;;;;;;;;;;5099738;28;20040;-78
2022/06/20 06:51:44;;;;;;;18.45;4.03;;;;;;;;;;5096292;28;20074;-75
2022/06/20 06:54:18;;;;;;;14.60;4.28;;;;;;;;;;5097637;28;20047;-76
2022/06/20 06:56:47;;;;;;;10.90;3.58;;;;;;;;;;5098989;28;20748;-76
2022/06/20 06:59:13;;;;;;;18.13;3.85;;;;;;;;;;5101328;28;20055;-75
2022/06/20 07:01:43;;;;;;;14.00;4.28;;;;;;;;;;5101652;28;20096;-76
2022/06/20 07:04:16;;;;;;;13.77;3.22;;;;;;;;;;5099631;28;20256;-75
2022/06/20 07:06:49;;;;;;;13.50;3.63;;;;;;;;;;5096463;28;20047;-77
2022/06/20 07:09:24;;;;;;;15.98;3.65;;;;;;;;;;5099847;28;20525;-79
2022/06/20 07:12:04;;;;;;;20.98;3.97;;;;;;;;;;5101558;28;20482;-75
2022/06/20 07:14:33;;;;;;;11.95;4.13;;;;;;;;;;5105802;28;20047;-76
2022/06/20 07:17:11;;;;;;;14.93;3.75;;;;;;;;;;5100030;28;20039;-77
2022/06/20 07:19:41;;;;;;;10.27;3.20;;;15.10;99.90;;;;;;5100288;28;20435;-76
2022/06/20 07:22:09;;;;;;;11.95;3.20;;;;;;;;;;5096866;28;20035;-76
2022/06/20 07:24:35;;;;;;;9.98;2.65;;;;;;;;;;5097803;28;20046;-79
2022/06/20 07:27:06;;;;;;;12.05;2.33;;;;;;;;;;5100374;28;20046;-77
2022/06/20 07:29:44;;;;;;;8.70;2.72;;;;;;;;;;5098041;28;20112;-79
2022/06/20 07:32:13;;;;;;;7.40;2.38;;;;;;;;;;5096165;28;20462;-82
2022/06/20 07:34:42;;;;;;;8.15;2.17;;;;;;;;;;5098349;27;20035;-77
2022/06/20 07:37:13;;;;;;;11.25;2.40;;;;;;;;;;5099081;28;20044;-78
2022/06/20 07:39:45;;;;;;;13.02;2.47;;;;;;;;;;5094247;28;20066;-76
2022/06/20 07:42:32;;;;;;;7.65;2.30;;;;;;;;;;5097145;28;20050;-75
2022/06/20 07:45:01;;;;;;;9.48;2.25;;;;;;;;;;5099955;27;20044;-81
2022/06/20 07:47:31;;;;;;;8.00;2.35;;;;;;;;;;5097657;28;20047;-76
2022/06/20 07:49:59;;;;;;;10.70;2.58;;;;;;;;;;5098642;28;20448;-79
2022/06/20 07:52:37;;;;;;;12.05;2.65;;;;;;;;;;5096817;28;20040;-76
2022/06/20 07:55:06;;;;;;;8.68;2.13;;;;;;;;;;5097741;28;20060;-77
2022/06/20 07:57:40;;;;;;;7.32;1.83;;;16.50;99.90;;;;;;5098619;27;20052;-77
2022/06/20 08:00:09;;;;;;;6.88;1.98;;;;;;;;;;5098298;28;20075;-76
2022/06/20 08:02:35;;;;;;;7.90;2.28;;;;;;;;;;5096977;28;20082;-77
2022/06/20 08:05:03;;;;;;;13.20;2.38;;;;;;;;;;5103202;28;20063;-76
2022/06/20 08:07:40;;;;;;;7.55;2.90;;;;;;;;;;5106075;28;20538;-75
2022/06/20 08:10:07;;;;;;;11.77;2.28;;;;;;;;;;5086127;28;20048;-76
2022/06/20 08:12:36;;;;;;;7.28;2.53;;;;;;;;;;5088769;28;20557;-76
2022/06/20 08:15:05;;;;;;;7.93;2.38;;;;;;;;;;5092179;28;20048;-77
2022/06/20 08:17:32;;;;;;;8.43;1.88;;;;;;;;;;5099189;28;20097;-75
2022/06/20 08:19:59;;;;;;;7.25;1.67;;;;;;;;;;5090262;28;20065;-78
2022/06/20 08:22:36;;;;;;;6.05;1.90;;;;;;;;;;5098095;28;20040;-78
2022/06/20 08:25:07;;;;;;;13.40;2.10;;;;;;;;;;5095807;28;20404;-76
2022/06/20 08:27:49;;;;;;;9.45;2.33;;;;;;;;;;5106504;28;20040;-78
2022/06/20 08:30:37;;;;;;;7.32;1.73;;;;;;;;;;5098333;28;20076;-78
2022/06/20 08:33:06;;;;;;;7.60;1.85;;;;;;;;;;5098039;28;20054;-82
2022/06/20 08:35:35;;;;;;;10.75;2.20;;;;;;;;;;5089004;28;20053;-78
2022/06/20 08:38:20;;;;;;;10.40;2.10;;;;;;;;;;5112067;28;20559;-79
2022/06/20 08:44:45;;;;;;;7.47;1.98;;;;;;;;;;5106831;28;20046;-78
2022/06/20 08:47:48;;;;;;;5.20;1.90;;;;;;;;;;5101597;28;20091;-78
2022/06/20 08:57:17;;;;;;;10.93;2.33;;;;;;;;;;5021288;28;20061;-78
2022/06/20 09:00:07;;;;;;;10.88;2.00;;;;;;;;;;5025601;28;20278;-78
2022/06/20 09:05:56;;;;;;;12.38;2.10;;;;;;;;;;5056669;28;20553;-77
2022/06/20 09:30:36;;;;;;;6.35;1.77;;;;;;;;;;5132549;22;20068;-84
2022/06/20 09:33:25;;;;;;;9.82;1.83;;;;;;;;;;5031094;28;20076;-81
2022/06/20 09:36:01;;;;;;;5.80;1.80;;;;;;;;;;5072959;28;20071;-79
2022/06/20 09:38:27;;;;;;;14.38;2.72;;;;;;;;;;5069971;28;20038;-76
2022/06/20 09:40:56;;;;;;;12.10;2.00;;;;;;;;;;5073497;28;20040;-77
2022/06/20 09:43:22;;;;;;;6.13;1.90;;;;;;;;;;5068875;28;20060;-75
2022/06/20 09:46:07;;;;;;;7.78;1.73;;;;;;;;;;5073020;28;20043;-77
2022/06/20 09:48:52;;;;;;;4.35;1.42;;;;;;;;;;5045150;28;20514;-77
2022/06/20 09:51:24;;;;;;;6.15;1.38;;;;;;;;;;5049559;28;20041;-76
2022/06/20 09:53:50;;;;;;;7.25;1.60;;;;;;;;;;5067357;28;20583;-81
2022/06/20 09:56:24;;;;;;;6.15;1.63;;;;;;;;;;5069176;28;20041;-77
2022/06/20 09:59:10;;;;;;;4.93;2.58;;;;;;;;;;5049173;28;20100;-78
2022/06/20 10:01:59;;;;;;;3.33;1.30;;;;;;;;;;5067507;28;20082;-77
2022/06/20 10:04:43;;;;;;;7.82;2.67;;;;;;;;;;5039144;28;20055;-77
2022/06/20 10:07:14;;;;;;;6.78;1.70;;;;;;;;;;5063867;28;20037;-79
2022/06/20 10:09:52;;;;;;;6.43;1.80;;;;;;;;;;5033453;28;20373;-80
2022/06/20 10:12:37;;;;;;;6.95;1.80;;;;;;;;;;5067386;28;20492;-77
2022/06/20 10:15:25;;;;;;;8.95;2.17;;;;;;;;;;5033905;28;20103;-78
2022/06/20 10:17:58;;;;;;;10.68;1.50;;;;;;;;;;5065508;28;20094;-78
2022/06/20 10:20:43;;;;;;;2.97;1.20;;;;;;;;;;5050629;28;20515;-77
2022/06/20 10:23:24;;;;;;;10.65;2.20;;;;;;;;;;5047729;28;20310;-78
2022/06/20 10:25:59;;;;;;;9.32;1.75;;;;;;;;;;5063478;28;20052;-79
2022/06/20 10:28:41;;;;;;;5.47;1.60;;;;;;;;;;5070131;28;20071;-78
2022/06/20 10:31:07;;;;;;;5.05;1.48;;;;;;;;;;5065789;28;20160;-77
2022/06/20 10:33:43;;;;;;;7.70;1.85;;;;;;;;;;5065254;28;20527;-77
2022/06/20 10:36:18;;;;;;;3.80;1.33;;;;;;;;;;5069765;28;20442;-77
2022/06/20 10:38:47;;;;;;;3.50;1.35;;;;;;;;;;5069673;28;20040;-77
2022/06/20 10:41:13;;;;;;;6.82;1.63;;;;;;;;;;5073980;28;20049;-77
2022/06/20 10:43:47;;;;;;;7.40;2.30;;;;;;;;;;5059791;28;20119;-76
2022/06/20 10:46:19;;;;;;;5.90;1.92;;;;;;;;;;5046653;28;20135;-77
2022/06/20 10:49:01;;;;;;;5.85;2.03;;;;;;;;;;5056912;28;20033;-77
2022/06/20 10:51:47;;;;;;;6.28;1.80;;;;;;;;;;5048876;28;20076;-78
2022/06/20 10:54:19;;;;;;;10.18;2.25;;;;;;;;;;5076168;28;20037;-79
2022/06/20 10:56:52;;;;;;;10.80;1.92;;;;;;;;;;5076707;28;20044;-77
2022/06/20 10:59:19;;;;;;;6.82;2.35;;;;;;;;;;5074404;28;20074;-78
2022/06/20 11:01:45;;;;;;;8.90;2.15;;;;;;;;;;5044340;28;20563;-78
2022/06/20 11:04:11;;;;;;;8.27;2.28;;;;;;;;;;5062191;28;20047;-78
2022/06/20 11:06:55;;;;;;;9.73;2.00;;;;;;;;;;5069283;28;20048;-80
2022/06/20 11:09:21;;;;;;;;;;;;;;;;;;5062691;28;20106;-79
2022/06/20 11:11:59;;;;;;;5.20;1.90;;;;;;;;;;5081387;28;20409;-78
2022/06/20 11:14:34;;;;;;;7.13;2.22;;;;;;;;;;5075725;28;20109;-78
2022/06/20 11:17:15;;;;;;;6.07;1.70;;;;;;;;;;5074739;28;20475;-77
2022/06/20 11:19:53;;;;;;;8.48;1.88;;;;;;;;;;5075318;28;20051;-78
2022/06/20 11:22:30;;;;;;;7.68;2.38;;;;;;;;;;5059616;28;20567;-79
2022/06/20 11:25:16;;;;;;;10.70;2.35;;;;;;;;;;5072047;28;20044;-79
2022/06/20 11:27:57;;;;;;;6.85;2.22;;;;;;;;;;5067634;28;20064;-79
2022/06/20 11:30:50;;;;;;;9.45;1.83;;;;;;;;;;5048648;28;20060;-78
2022/06/20 11:36:32;;;;;;;4.30;1.90;;;;;;;;;;5063779;28;20441;-78
2022/06/20 11:39:28;;;;;;;3.50;1.35;;;20.00;99.90;;;;;;5067398;28;20135;-77
2022/06/20 11:42:17;;;;;;;8.63;2.30;;;;;;;;;;5064791;28;20032;-79
2022/06/20 11:44:49;;;;;;;6.60;1.63;;;;;;;;;;5052997;28;20053;-78
2022/06/20 11:47:26;;;;;;;6.82;1.40;;;;;;;;;;5066954;28;20095;-79
2022/06/20 11:50:12;;;;;;;4.57;1.77;;;;;;;;;;5056402;28;20076;-79
2022/06/20 11:52:46;;;;;;;6.53;2.35;;;;;;;;;;5068213;28;20060;-78
2022/06/20 11:55:28;;;;;;;8.93;2.17;;;;;;;;;;5049029;28;20048;-78
2022/06/20 11:58:03;;;;;;;4.90;1.45;;;;;;;;;;5067460;28;20052;-79
2022/06/20 12:00:36;;;;;;;4.22;1.50;;;;;;;;;;5066473;28;20064;-77
2022/06/20 12:03:11;;;;;;;8.50;1.70;;;;;;;;;;5067309;28;20051;-77
2022/06/20 12:05:55;;;;;;;5.45;1.83;;;;;;;;;;5057814;28;20082;-77
2022/06/20 12:08:36;;;;;;;5.78;1.88;;;;;;;;;;5062751;28;20048;-76
2022/06/20 12:11:15;;;;;;;9.32;1.65;;;;;;;;;;5055045;28;20082;-77
2022/06/20 12:13:51;;;;;;;6.68;1.60;;;;;;;;;;5066488;28;20082;-78
2022/06/20 12:16:36;;;;;;;2.20;1.50;;;;;;;;;;5067090;28;20086;-78
2022/06/20 12:24:35;;;;;;;5.43;1.85;;;;;;;;;;5048647;28;20048;-78
2022/06/20 12:27:01;;;;;;;4.32;1.25;;;;;;;;;;5066064;28;20044;-78
2022/06/20 12:29:29;;;;;;;5.90;1.42;;;;;;;;;;5066962;28;20048;-78
2022/06/20 12:31:58;;;;;;;6.03;1.90;;;20.10;99.90;;;;;;5056675;28;20070;-78
2022/06/20 12:34:45;;;;;;;5.63;1.75;;;;;;;;;;5066361;28;20453;-78
2022/06/20 12:37:18;;;;;;;4.38;1.77;;;;;;;;;;5067176;28;20045;-78
2022/06/20 12:39:49;;;;;;;6.70;1.55;;;;;;;;;;5064814;28;20037;-79
2022/06/20 12:42:42;;;;;;;10.32;2.15;;;;;;;;;;5067721;28;20041;-78
2022/06/20 12:45:27;;;;;;;4.43;1.73;;;;;;;;;;5040264;28;20124;-79
2022/06/20 12:48:17;;;;;;;5.65;1.50;;;;;;;;;;5068290;28;20035;-80
2022/06/20 12:50:53;;;;;;;11.02;2.13;;;;;;;;;;5059402;28;20057;-79
2022/06/20 12:53:29;;;;;;;16.33;2.60;;;;;;;;;;5057265;28;20053;-81
2022/06/20 12:55:58;;;;;;;7.88;2.08;;;;;;;;;;5066756;28;20044;-78
2022/06/20 12:58:39;;;;;;;8.30;1.90;;;;;;;;;;5056760;28;20055;-77
2022/06/20 13:01:12;;;;;;;5.97;2.20;;;;;;;;;;5041734;28;20055;-77
2022/06/20 13:03:44;;;;;;;12.15;2.38;;;;;;;;;;5058367;28;20055;-77
2022/06/20 13:06:11;;;;;;;8.18;1.60;;;;;;;;;;5061097;28;20198;-78
2022/06/20 13:08:49;;;;;;;6.25;1.58;;;;;;;;;;5066937;28;20052;-78
2022/06/20 13:11:41;;;;;;;36.90;3.40;;;;;;;;;;5065996;28;20043;-77
2022/06/20 13:14:08;;;;;;;7.60;2.08;;;;;;;;;;5061122;28;21509;-78
2022/06/20 13:16:40;;;;;;;7.05;1.55;;;;;;;;;;5065801;28;20055;-79
2022/06/20 13:19:20;;;;;;;8.82;2.13;;;;;;;;;;5065701;28;20053;-78
2022/06/20 13:21:49;;;;;;;10.50;2.08;;;;;;;;;;5048284;28;20488;-77
2022/06/20 13:24:18;;;;;;;5.35;1.55;;;;;;;;;;5047716;28;20041;-79
2022/06/20 13:27:03;;;;;;;7.63;1.67;;;;;;;;;;5047284;28;20211;-79
2022/06/20 13:29:29;;;;;;;11.68;1.80;;;;;;;;;;5047770;28;20063;-79
2022/06/20 13:32:01;;;;;;;7.80;2.22;;;;;;;;;;5048209;28;20075;-79
2022/06/20 13:34:45;;;;;;;10.52;1.90;;;;;;;;;;5065129;28;20040;-78
2022/06/20 13:37:30;;;;;;;5.35;1.48;;;;;;;;;;5048874;28;20105;-79
2022/06/20 13:39:59;;;;;;;8.25;1.60;;;;;;;;;;5063811;28;20810;-79
2022/06/20 13:42:33;;;;;;;6.22;1.73;;;;;;;;;;5069398;28;20136;-78
2022/06/20 13:45:06;;;;;;;3.58;1.27;;;;;;;;;;5040722;28;20121;-79
2022/06/20 13:47:34;;;;;;;3.17;1.85;;;;;;;;;;5067293;28;20132;-77
2022/06/20 13:50:12;;;;;;;5.28;1.60;;;;;;;;;;5073022;28;20036;-79
2022/06/20 13:52:48;;;;;;;3.63;1.30;;;;;;;;;;5070962;28;20052;-79
2022/06/20 13:55:26;;;;;;;7.63;1.60;;;;;;;;;;5076431;28;20060;-79
2022/06/20 13:57:55;;;;;;;7.60;2.25;;;;;;;;;;5068170;28;20522;-79
2022/06/20 14:00:23;;;;;;;6.63;1.98;;;;;;;;;;5058560;28;20080;-79
2022/06/20 14:03:07;;;;;;;8.30;1.98;;;;;;;;;;5061558;28;20825;-80
2022/06/20 14:05:35;;;;;;;5.68;1.40;;;;;;;;;;5055235;28;20049;-79
2022/06/20 14:08:13;;;;;;;4.65;1.60;;;;;;;;;;5061681;28;20036;-79
2022/06/20 14:10:57;;;;;;;9.90;2.50;;;;;;;;;;5057556;28;20123;-79
2022/06/20 14:13:25;;;;;;;5.60;1.90;;;;;;;;;;5041200;28;20052;-79
2022/06/20 14:15:51;;;;;;;7.68;2.08;;;;;;;;;;5078676;28;20067;-79
2022/06/20 14:18:25;;;;;;;9.93;2.10;;;;;;;;;;5060377;28;20514;-78
2022/06/20 14:21:08;;;;;;;6.40;1.90;;;;;;;;;;5061725;28;20040;-78
2022/06/20 14:23:36;;;;;;;7.78;1.55;;;;;;;;;;5040406;28;20036;-78
2022/06/20 14:26:04;;;;;;;5.28;1.90;;;;;;;;;;5075693;28;20044;-79
2022/06/20 14:28:33;;;;;;;7.95;2.10;;;;;;;;;;5080451;28;20507;-77
2022/06/20 14:31:19;;;;;;;9.02;2.50;;;;;;;;;;5060420;28;20075;-78
2022/06/20 14:33:45;;;;;;;8.20;2.10;;;;;;;;;;5060393;28;20491;-78
2022/06/20 14:36:14;;;;;;;7.18;1.88;;;;;;;;;;5072545;28;20055;-79
2022/06/20 14:38:52;;;;;;;9.35;2.03;;;;;;;;;;5079885;28;20066;-78
2022/06/20 14:41:42;;;;;;;8.05;1.80;;;;;;;;;;5071422;28;20054;-78
2022/06/20 14:44:29;;;;;;;7.75;1.90;;;;;;;;;;5057609;28;20083;-79
2022/06/20 14:46:58;;;;;;;6.25;1.65;;;;;;;;;;5074631;28;20470;-78
2022/06/20 14:49:31;;;;;;;8.07;2.20;;;;;;;;;;5077035;28;20092;-79
2022/06/20 14:52:08;;;;;;;6.05;2.20;;;;;;;;;;5077205;28;20036;-79
2022/06/20 14:54:40;;;;;;;10.38;2.53;;;;;;;;;;5075761;28;20024;-79
2022/06/20 14:57:09;;;;;;;9.50;2.60;;;;;;;;;;5075956;28;20379;-78
2022/06/20 14:59:44;;;;;;;8.25;2.13;;;;;;;;;;5077077;28;20040;-79
2022/06/20 15:02:20;;;;;;;8.38;2.33;;;;;;;;;;5071076;28;20865;-79
2022/06/20 15:04:58;;;;;;;6.35;2.25;;;;;;;;;;5072370;28;20041;-79
2022/06/20 15:07:27;;;;;;;7.72;1.88;;;;;;;;;;5043350;28;20043;-79
2022/06/20 15:09:55;;;;;;;6.28;1.95;;;;;;;;;;5076642;28;20111;-80
2022/06/20 15:12:24;;;;;;;8.40;2.05;;;;;;;;;;5050129;28;20059;-80
2022/06/20 15:14:54;;;;;;;8.90;2.25;;;;;;;;;;5076386;28;20136;-79
2022/06/20 15:17:20;;;;;;;12.25;2.47;;;;;;;;;;5080625;28;20059;-80
2022/06/20 15:19:56;;;;;;;9.82;2.55;;;;;;;;;;5071059;28;20119;-79
2022/06/20 15:22:28;;;;;;;10.68;2.90;;;;;;;;;;5057874;28;20051;-78
2022/06/20 15:24:57;;;;;;;11.15;3.00;;;;;;;;;;5057482;28;20036;-78
2022/06/20 15:27:26;;;;;;;9.90;2.78;;;;;;;;;;5054429;28;20102;-79
2022/06/20 15:29:56;;;;;;;9.75;2.53;;;;;;;;;;5074179;28;20376;-80
2022/06/20 15:32:38;;;;;;;7.93;2.60;;;;;;;;;;5074159;28;20895;-79
2022/06/20 15:35:12;;;;;;;11.43;2.80;;;;;;;;;;5063257;28;20052;-78
2022/06/20 15:37:40;;;;;;;11.27;2.67;;;;;;;;;;5073783;28;20512;-79
2022/06/20 15:40:16;;;;;;;9.68;2.83;;;;;;;;;;5056680;28;20044;-77
2022/06/20 15:42:42;;;;;;;12.35;3.50;;;;;;;;;;5055015;28;20048;-79
2022/06/20 15:45:11;;;;;;;10.07;2.83;;;;;;;;;;5075522;28;20052;-79
2022/06/20 15:47:43;;;;;;;7.85;2.25;;;;;;;;;;5074721;28;20036;-79
2022/06/20 15:50:30;;;;;;;11.20;2.40;;;;;;;;;;5077614;28;20146;-79
2022/06/20 15:52:56;;;;;;;8.73;2.25;;;;;;;;;;5051905;28;20505;-77
2022/06/20 15:55:41;;;;;;;7.75;2.42;;;;;;;;;;5071422;28;20047;-78
2022/06/20 15:58:26;;;;;;;7.15;2.10;;;;;;;;;;5077056;28;20092;-79
2022/06/20 16:01:10;;;;;;;7.30;2.40;;;;;;;;;;5068689;28;20066;-80
2022/06/20 16:03:36;;;;;;;6.75;2.40;;;;;;;;;;5031868;28;20060;-78
2022/06/20 16:06:06;;;;;;;8.18;2.35;;;;;;;;;;5071766;28;20063;-80